Latest Weather Observations for Proserpine

IDQ60801

Issued at 6:02 am EST Tuesday 3 March 2015 (issued every 30 minutes, with the page automatically refreshed every 10 minutes)

About weather observations | Map of weather stations | Latest weather observations for QLD | Other Formats
Station Details ID: 033247 Name: PROSERPINE AIRPORT Lat: -20.49 Lon: 148.56 Height: 19.7 m
Data from the previous 72 hours. | See also: Recent months at Proserpine
Date/Time
EST
Temp
°C
App
Temp
°C
Dew
Point
Rel
Hum
%
Delta-T
°C
Wind Press
QNH
hPa
Press
MSL
hPa
Rain
since 9 am
mm
Dir
 
Spd
km/h
Gust
km/h
Spd
kts
Gust
kts
03/06:00am 24.4 26.1 21.7 85 1.8 S 15 17 8 9 1010.8 1010.7 -
03/05:30am 24.3 26.7 21.6 85 1.8 S 11 15 6 8 1010.5 1010.4 0.0
03/05:00am 24.8 27.4 21.9 84 1.9 S 11 15 6 8 1010.3 1010.2 0.0
03/04:30am 24.4 26.8 22.3 88 1.4 S 13 15 7 8 1010.3 1010.2 0.0
03/04:00am 24.0 26.6 21.9 88 1.4 S 11 11 6 6 1010.1 1010.0 0.0
03/03:30am 24.7 27.4 22.2 86 1.7 S 11 15 6 8 1010.0 1009.9 0.0
03/03:00am 25.0 27.8 22.3 85 1.8 SSE 11 17 6 9 1010.0 1009.9 0.0
03/02:30am 24.2 27.3 22.1 88 1.4 SSW 9 11 5 6 1010.1 1010.0 0.0
03/02:00am 24.5 27.5 22.0 86 1.7 SSE 9 13 5 7 1010.2 1010.1 0.0
03/01:30am 24.8 27.5 22.1 85 1.8 SSE 11 17 6 9 1010.3 1010.2 0.0
03/01:00am 25.4 27.5 22.5 84 2.0 SSE 15 20 8 11 1010.5 1010.4 0.0
03/12:30am 24.4 27.6 22.3 88 1.4 S 9 11 5 6 1010.8 1010.7 0.0
03/12:00am 24.5 28.1 22.0 86 1.7 SSW 6 7 3 4 1011.2 1011.1 0.0
 
Date/Time
EST
Temp
°C
App
Temp
°C
Dew
Point
Rel
Hum
%
Delta-T
°C
Wind Press
QNH
hPa
Press
MSL
hPa
Rain
since 9 am
mm
Dir
 
Spd
km/h
Gust
km/h
Spd
kts
Gust
kts
02/11:30pm 25.2 28.3 22.1 83 2.1 SSE 9 13 5 7 1011.3 1011.2 0.0
02/11:00pm 25.4 29.0 22.1 82 2.2 SSE 6 9 3 5 1011.4 1011.3 0.0
02/10:30pm 25.9 28.9 22.0 79 2.6 S 9 11 5 6 1011.3 1011.2 0.0
02/10:00pm 26.5 27.9 21.9 76 3.1 SE 17 24 9 13 1011.0 1010.9 0.0
02/09:30pm 26.2 28.7 22.5 80 2.5 SE 13 19 7 10 1011.0 1010.9 0.0
02/09:00pm 26.0 29.1 22.9 83 2.1 ESE 11 15 6 8 1010.8 1010.7 0.0
02/08:30pm 25.7 29.4 22.6 83 2.1 ESE 7 11 4 6 1010.4 1010.3 0.0
02/08:00pm 25.5 28.5 22.0 81 2.3 ESE 9 11 5 6 1009.9 1009.8 0.0
02/07:30pm 26.0 28.7 22.1 79 2.6 ESE 11 15 6 8 1009.5 1009.4 0.0
02/07:00pm 26.5 28.8 22.1 77 3.0 ESE 13 17 7 9 1009.3 1009.2 0.0
02/06:30pm 27.1 28.5 21.8 73 3.5 ESE 17 24 9 13 1009.0 1008.9 0.0
02/06:00pm 27.8 29.2 21.8 70 4.0 ESE 17 24 9 13 1008.7 1008.6 0.0
02/05:30pm 28.5 28.8 21.5 66 4.7 ESE 22 30 12 16 1008.5 1008.4 0.0
02/05:00pm 29.3 29.5 21.3 62 5.4 ESE 22 32 12 17 1008.2 1008.1 0.0
02/04:30pm 29.7 29.8 21.9 63 5.3 ESE 24 37 13 20 1008.0 1007.9 0.0
02/04:00pm 30.5 31.0 22.7 63 5.3 ESE 24 32 13 17 1007.6 1007.5 0.0
02/03:30pm 30.5 29.9 20.4 54 6.7 ESE 24 35 13 19 1007.5 1007.4 0.0
02/03:00pm 31.2 29.9 19.9 51 7.5 E 26 33 14 18 1007.5 1007.4 0.0
02/02:30pm 32.3 31.6 19.5 46 8.4 E 22 33 12 18 1007.7 1007.6 0.0
02/02:00pm 31.1 30.5 20.4 53 7.1 E 24 41 13 22 1008.0 1007.9 0.0
02/01:30pm 32.2 31.9 21.1 52 7.5 E 24 33 13 18 1008.2 1008.1 0.0
02/01:00pm 31.3 31.7 20.9 54 7.0 ESE 20 30 11 16 1008.7 1008.6 0.0
02/12:30pm 33.1 33.8 21.6 51 7.8 ESE 20 30 11 16 1009.1 1009.0 0.0
02/12:00pm 31.6 31.8 20.5 51 7.4 ESE 20 26 11 14 1009.4 1009.3 0.0
02/11:30am 32.4 34.4 22.2 55 7.0 E 15 22 8 12 1009.5 1009.4 0.0
02/11:00am 31.5 32.1 19.5 49 7.9 SE 15 20 8 11 1009.8 1009.7 0.0
02/10:30am 30.8 32.8 20.7 55 6.7 SE 11 17 6 9 1010.1 1010.0 0.0
02/10:00am 31.3 33.7 21.5 56 6.6 SE 11 17 6 9 1010.1 1010.0 0.0
02/09:30am 29.8 32.6 21.5 61 5.6 E 9 17 5 9 1010.0 1009.9 0.0
02/09:00am 29.4 33.0 22.1 65 4.9 SSE 6 11 3 6 1010.1 1010.0 0.0
02/08:30am 28.2 31.9 22.2 70 4.0 S 6 11 3 6 1010.1 1010.0 0.0
02/08:00am 27.3 31.0 22.5 75 3.2 SSW 7 9 4 5 1010.0 1009.9 0.0
02/07:30am 25.9 30.1 23.4 86 1.7 SW 7 9 4 5 1009.6 1009.5 0.0
02/07:00am 24.3 27.9 23.1 93 0.8 SW 9 11 5 6 1009.5 1009.4 0.0
02/06:30am 23.3 27.2 22.6 96 0.5 SSW 6 7 3 4 1009.2 1009.1 0.0
02/06:00am 22.8 26.2 22.0 95 0.5 SSW 7 9 4 5 1008.6 1008.5 0.0
02/05:30am 22.7 27.3 21.7 94 0.7 CALM 0 6 0 3 1008.5 1008.4 0.0
02/05:00am 23.4 28.3 22.4 94 0.7 CALM 0 0 0 0 1008.3 1008.2 0.0
02/04:30am 23.5 28.5 22.5 94 0.7 CALM 0 0 0 0 1008.3 1008.2 0.0
02/04:00am 23.7 28.6 22.3 92 0.9 CALM 0 0 0 0 1008.1 1008.0 0.0
02/03:30am 23.8 28.7 22.4 92 0.9 CALM 0 4 0 2 1008.0 1007.9 0.0
02/03:00am 24.2 29.3 22.6 91 1.1 CALM 0 0 0 0 1008.1 1008.0 0.0
02/02:30am 24.6 29.7 22.7 89 1.3 CALM 0 0 0 0 1008.2 1008.1 0.0
02/02:00am 24.7 29.9 22.9 90 1.2 CALM 0 0 0 0 1008.5 1008.4 0.0
02/01:30am 24.8 29.8 22.5 87 1.5 CALM 0 0 0 0 1008.5 1008.4 0.0
02/01:00am 25.4 30.4 22.5 84 2.0 CALM 0 0 0 0 1009.1 1009.0 0.0
02/12:30am 26.0 31.2 22.9 83 2.1 CALM 0 0 0 0 1009.5 1009.4 0.0
02/12:00am 26.3 31.2 23.0 82 2.2 ESE 2 6 1 3 1009.8 1009.7 0.0
 
Date/Time
EST
Temp
°C
App
Temp
°C
Dew
Point
Rel
Hum
%
Delta-T
°C
Wind Press
QNH
hPa
Press
MSL
hPa
Rain
since 9 am
mm
Dir
 
Spd
km/h
Gust
km/h
Spd
kts
Gust
kts
01/11:30pm 26.3 30.4 23.0 82 2.2 NE 6 7 3 4 1010.0 1009.9 0.0
01/11:00pm 26.4 30.4 22.7 80 2.5 ENE 6 9 3 5 1010.1 1010.0 0.0
01/10:30pm 26.4 30.4 22.7 80 2.5 E 6 7 3 4 1010.0 1009.9 0.0
01/10:00pm 26.5 30.0 22.8 80 2.5 NE 9 13 5 7 1009.9 1009.8 0.0
01/09:30pm 26.5 30.1 23.0 81 2.4 NE 9 13 5 7 1009.5 1009.4 0.0
01/09:00pm 26.1 31.0 23.0 83 2.1 NE 2 7 1 4 1009.4 1009.3 0.0
01/08:30pm 26.3 30.3 22.8 81 2.4 NE 6 7 3 4 1009.1 1009.0 0.0
01/08:00pm 26.7 30.5 22.8 79 2.6 NNE 7 9 4 5 1008.6 1008.5 0.0
01/07:30pm 27.2 31.1 22.6 76 3.1 NNE 6 9 3 5 1008.5 1008.4 0.0
01/07:00pm 27.6 31.1 22.8 75 3.3 NNE 9 13 5 7 1008.1 1008.0 0.0
01/06:30pm 27.9 30.9 22.6 73 3.6 NNE 11 19 6 10 1007.4 1007.3 0.0
01/06:00pm 28.4 31.9 22.9 72 3.8 NNE 9 15 5 8 1007.2 1007.1 0.0
01/05:30pm 28.8 32.3 22.8 70 4.1 NNE 9 15 5 8 1007.0 1006.9 0.0
01/05:00pm 29.3 31.6 22.8 68 4.4 NNE 15 20 8 11 1006.8 1006.7 0.0
01/04:30pm 30.1 33.0 22.5 63 5.2 NNE 11 17 6 9 1006.6 1006.5 0.0
01/04:00pm 31.2 34.1 22.5 60 6.0 ENE 11 17 6 9 1006.4 1006.3 0.0
01/03:30pm 31.5 34.4 21.7 56 6.6 E 9 17 5 9 1006.6 1006.5 0.0
01/03:00pm 32.8 35.4 22.6 55 7.0 E 13 19 7 10 1006.7 1006.6 0.0
01/02:30pm 32.1 33.2 21.3 53 7.3 E 17 26 9 14 1006.8 1006.7 0.0
01/02:00pm 31.9 34.2 22.0 55 6.7 E 13 20 7 11 1007.1 1007.0 0.0
01/01:30pm 31.3 32.6 20.9 54 7.0 ESE 15 20 8 11 1007.4 1007.3 0.0
01/01:00pm 30.4 32.9 21.8 60 5.8 E 11 17 6 9 1007.8 1007.7 0.0
01/12:30pm 31.0 33.2 20.3 53 7.1 SSE 9 17 5 9 1008.1 1008.0 0.0
01/12:00pm 31.2 32.8 19.2 48 7.8 S 9 15 5 8 1008.5 1008.4 0.0
01/11:30am 31.2 33.0 19.5 49 7.7 NNW 9 13 5 7 1009.2 1009.1 0.0
01/11:00am 31.2 33.7 21.1 55 6.8 N 9 15 5 8 1009.6 1009.5 0.0
01/10:30am 30.6 33.7 21.4 58 6.2 N 7 11 4 6 1009.9 1009.8 0.0
01/10:00am 30.0 33.2 21.7 61 5.6 NE 7 13 4 7 1010.0 1009.9 0.0
01/09:30am 29.5 32.6 22.2 65 4.9 NNW 9 13 5 7 1010.0 1009.9 0.0
01/09:26am 29.0 31.9 21.7 64 4.9 N 9 13 5 7 1010.0 1009.9 0.0
01/09:00am 27.9 32.6 21.9 70 4.0 CALM 0 6 0 3 1010.1 1010.0 0.0
01/08:57am 28.0 32.6 22.5 72 3.7 ESE 2 7 1 4 1010.1 1010.0 0.0
01/08:30am 27.8 32.4 22.5 73 3.6 E 2 7 1 4 1009.8 1009.7 0.0
01/08:00am 26.5 30.6 23.0 81 2.4 S 6 7 3 4 1009.3 1009.2 0.0
01/07:30am 24.6 28.1 22.8 90 1.2 SSW 9 11 5 6 1009.0 1008.9 0.0
01/07:00am 22.9 26.2 21.9 94 0.7 SSW 7 9 4 5 1008.7 1008.6 0.0
01/06:30am 21.9 25.5 21.2 96 0.5 SW 4 6 2 3 1008.5 1008.4 0.0
01/06:00am 21.3 24.5 20.6 96 0.5 SW 4 7 2 4 1008.1 1008.0 0.0
01/05:30am 21.6 25.4 20.9 96 0.5 WSW 2 6 1 3 1007.9 1007.8 0.0
01/05:00am 21.2 25.0 20.2 94 0.6 CALM 0 0 0 0 1007.7 1007.6 0.0
01/04:30am 21.7 25.9 20.9 95 0.5 CALM 0 0 0 0 1007.8 1007.7 0.0
01/04:00am 21.7 25.8 20.7 94 0.6 CALM 0 0 0 0 1007.8 1007.7 0.0
01/03:30am 22.2 26.5 21.2 94 0.7 CALM 0 0 0 0 1007.8 1007.7 0.0
01/03:00am 22.4 26.8 21.4 94 0.7 CALM 0 0 0 0 1007.9 1007.8 0.0
01/02:30am 22.4 25.8 21.6 95 0.5 WNW 6 6 3 3 1008.1 1008.0 0.0
01/02:00am 22.5 25.6 21.5 94 0.7 SSW 7 9 4 5 1008.3 1008.2 0.0
01/01:30am 22.8 26.2 21.6 93 0.8 SSW 6 7 3 4 1008.6 1008.5 0.0
01/01:00am 22.7 27.2 21.5 93 0.8 CALM 0 0 0 0 1009.3 1009.2 0.0
01/12:30am 23.0 26.8 21.6 92 0.9 S 4 6 2 3 1009.5 1009.4 0.0
01/12:00am 23.3 27.2 21.9 92 0.9 SW 4 7 2 4 1009.8 1009.7 0.0
 
Date/Time
EST
Temp
°C
App
Temp
°C
Dew
Point
Rel
Hum
%
Delta-T
°C
Wind Press
QNH
hPa
Press
MSL
hPa
Rain
since 9 am
mm
Dir
 
Spd
km/h
Gust
km/h
Spd
kts
Gust
kts
28/11:30pm 23.3 27.9 21.7 91 1.1 CALM 0 0 0 0 1009.7 1009.6 0.0
28/11:00pm 23.2 26.5 21.8 92 0.9 WNW 7 9 4 5 1009.9 1009.8 0.0
28/10:30pm 23.5 26.8 21.9 91 1.1 S 7 9 4 5 1010.0 1009.9 0.0
28/10:00pm 24.0 28.7 21.9 88 1.4 CALM 0 0 0 0 1010.0 1009.9 0.0
28/09:30pm 24.2 28.9 21.9 87 1.5 CALM 0 6 0 3 1009.5 1009.4 0.0
28/09:00pm 24.5 28.0 21.8 85 1.8 E 6 9 3 5 1009.4 1009.3 0.0
28/08:30pm 24.7 28.8 21.6 83 2.1 ENE 2 6 1 3 1009.2 1009.1 0.0
28/08:00pm 24.9 27.7 21.6 82 2.2 E 9 11 5 6 1008.8 1008.7 0.0
28/07:30pm 25.2 28.0 21.5 80 2.5 E 9 11 5 6 1008.7 1008.6 0.0
28/07:00pm 25.9 28.6 21.3 76 3.1 E 9 13 5 7 1008.1 1008.0 0.0
28/06:30pm 27.0 29.3 21.3 71 3.8 E 11 13 6 7 1007.7 1007.6 0.0
28/06:00pm 28.3 29.6 20.8 63 5.0 E 15 20 8 11 1007.4 1007.3 0.0
28/05:30pm 29.2 30.5 20.9 61 5.5 ESE 15 24 8 13 1007.2 1007.1 0.0
28/05:00pm 30.0 30.5 21.1 59 6.0 ESE 20 26 11 14 1006.8 1006.7 0.0
28/04:30pm 30.1 30.5 19.8 54 6.8 ESE 17 24 9 13 1006.6 1006.5 0.0
28/04:00pm 31.4 32.4 21.0 54 7.0 ESE 17 26 9 14 1006.3 1006.2 0.0
28/03:30pm 31.4 31.6 19.4 49 7.9 ESE 17 26 9 14 1006.4 1006.3 0.0
28/03:00pm 31.6 31.5 19.6 49 7.9 ESE 19 26 10 14 1006.5 1006.4 0.0
28/02:30pm 31.6 30.7 18.2 44 8.6 ESE 20 24 11 13 1006.7 1006.6 0.0
28/02:00pm 32.1 31.8 18.3 44 8.9 E 17 24 9 13 1007.0 1006.9 0.0
28/01:30pm 32.0 31.4 17.5 42 9.3 ENE 17 24 9 13 1007.2 1007.1 0.0
28/01:00pm 31.4 32.1 20.4 52 7.3 E 17 28 9 15 1007.7 1007.6 0.0
28/12:30pm 30.7 32.9 21.2 57 6.4 SE 11 19 6 10 1008.1 1008.0 0.0
28/12:00pm 30.9 32.7 21.1 56 6.6 ESE 13 20 7 11 1008.5 1008.4 0.0
28/11:30am 30.9 32.5 21.4 57 6.4 SSE 15 24 8 13 1008.6 1008.5 0.0
28/11:00am 31.2 33.8 21.9 57 6.3 E 11 20 6 11 1008.8 1008.7 0.0
28/10:30am 30.2 32.2 21.6 60 5.8 SE 13 19 7 10 1008.9 1008.8 0.0
28/10:00am 29.5 31.4 21.4 61 5.4 ESE 13 17 7 9 1009.1 1009.0 0.0
28/09:30am 28.5 31.6 21.0 64 5.0 E 6 11 3 6 1009.0 1008.9 0.0
28/09:00am 28.0 31.2 21.3 67 4.5 SE 6 9 3 5 1009.0 1008.9 0.0
28/08:30am 28.1 32.5 23.5 76 3.2 SE 6 7 3 4 1009.0 1008.9 0.0
28/08:00am 25.8 29.8 22.7 83 2.1 S 6 7 3 4 1008.8 1008.7 0.0
28/07:30am 24.1 27.7 22.4 90 1.1 SSW 7 11 4 6 1008.4 1008.3 0.0
28/07:00am 23.0 26.7 22.2 95 0.5 SSW 6 7 3 4 1008.2 1008.1 0.0
28/06:30am 21.9 25.8 21.1 95 0.5 S 2 6 1 3 1008.0 1007.9 0.0

Other Formats:

Comma delimited format used in spreadsheet applications
http://www.bom.gov.au/fwo/IDQ60801/IDQ60801.94365.axf

JavaScript Object Notation format (JSON) in row-major order
http://www.bom.gov.au/fwo/IDQ60801/IDQ60801.94365.json